Time;durP1;ratioP1;P1;durP2;ratioP2;P2;SDS_P1;SDS_P2;PMS_P1;PMS_P2;Temp;Humidity;BMP_temperature;BMP_pressure;BME280_temperature;BME280_humidity;BME280_pressure;Samples;Min_cycle;Max_cycle;Signal;HPM_P1;HPM_P2
2023/01/09 00:02:00;;;;;;;4.75;1.15;;;;;;;6.27;100.00;99384.56;6159155;23;20018;-76
2023/01/09 00:04:26;;;;;;;1.27;0.80;;;;;;;6.24;100.00;99374.13;6133887;23;20018;-76
2023/01/09 00:06:53;;;;;;;3.28;0.90;;;;;;;6.22;100.00;99381.75;6159623;23;20057;-76
2023/01/09 00:09:20;;;;;;;3.03;0.85;;;;;;;6.17;100.00;99380.44;6159791;23;20086;-76
2023/01/09 00:11:47;;;;;;;4.28;1.02;;;;;;;6.14;100.00;99376.03;6132979;23;20017;-76
2023/01/09 00:14:15;;;;;;;0.88;0.88;;;;;;;6.12;100.00;99377.66;6159809;23;20459;-76
2023/01/09 00:16:42;;;;;;;2.53;0.85;;;;;;;6.08;100.00;99383.06;6159460;23;20044;-76
2023/01/09 00:19:09;;;;;;;1.75;1.00;;;;;;;6.06;100.00;99377.50;6159121;23;20025;-77
2023/01/09 00:21:36;;;;;;;0.95;0.77;;;;;;;6.03;100.00;99381.03;6159745;23;20099;-77
2023/01/09 00:24:03;;;;;;;1.20;0.75;;;;;;;6.00;100.00;99387.19;6133242;23;20048;-74
2023/01/09 00:26:29;;;;;;;2.88;1.02;;;;;;;5.98;100.00;99390.28;6159077;23;20088;-77
2023/01/09 00:28:57;;;;;;;1.00;0.90;;;;;;;5.94;100.00;99381.78;6132670;23;20033;-77
2023/01/09 00:31:23;;;;;;;0.85;0.85;;;;;;;5.93;100.00;99390.13;6159706;23;20078;-76
2023/01/09 00:34:03;;;;;;;0.90;0.90;;;;;;;5.88;100.00;99394.06;6159467;23;20014;-77
2023/01/09 00:36:30;;;;;;;1.88;1.00;;;;;;;5.84;100.00;99384.81;6159843;23;20024;-76
2023/01/09 00:38:56;;;;;;;3.90;1.20;;;;;;;5.82;100.00;99384.53;6159443;23;20022;-76
2023/01/09 00:41:38;;;;;;;1.38;1.00;;;;;;;5.78;100.00;99384.66;6159024;23;20097;-76
2023/01/09 00:44:17;;;;;;;1.88;1.20;;;;;;;5.74;100.00;99384.06;6159088;23;20018;-76
2023/01/09 00:46:58;;;;;;;1.20;1.10;;;;;;;5.70;100.00;99384.22;6133536;23;20014;-76
2023/01/09 00:49:28;;;;;;;1.88;0.95;;;;;;;5.69;100.00;99385.38;6159899;23;20044;-76
2023/01/09 00:51:55;;;;;;;1.23;1.13;;;;;;;5.66;100.00;99385.50;6159803;23;20025;-76
2023/01/09 00:54:22;;;;;;;1.23;1.05;;;;;;;5.63;100.00;99389.03;6158798;23;20014;-76
2023/01/09 00:56:48;;;;;;;3.50;1.27;;;;;;;5.59;100.00;99389.19;6158883;23;20441;-76
2023/01/09 00:59:15;;;;;;;1.55;1.20;;;;;;;5.56;100.00;99395.34;6159264;23;20449;-75
2023/01/09 01:01:42;;;;;;;1.55;1.10;;;;;;;5.54;100.00;99394.31;6159605;23;20014;-75
2023/01/09 01:09:38;;;;;;;3.97;1.52;;;;;;;5.44;100.00;99396.19;6159297;23;20501;-75
2023/01/09 01:12:05;;;;;;;2.05;1.50;;;;;;;5.43;100.00;99396.63;6158917;23;20460;-76
2023/01/09 01:14:34;;;;;;;2.40;1.40;;;;;;;5.40;100.00;99392.22;6159666;23;20018;-76
2023/01/09 01:17:00;;;;;;;7.70;2.25;;;;;;;5.38;100.00;99397.94;6131878;23;20022;-76
2023/01/09 01:19:27;;;;;;;4.50;1.30;;;;;;;5.36;100.00;99406.28;6133306;23;20026;-76
2023/01/09 01:21:54;;;;;;;3.70;1.20;;;;;;;5.35;100.00;99402.16;6159355;23;20417;-75
2023/01/09 01:24:21;;;;;;;5.28;1.40;;;;;;;5.31;100.00;99396.28;6158774;23;20026;-76
2023/01/09 01:26:48;;;;;;;1.70;1.40;;;;;;;5.30;100.00;99396.72;6159652;23;20025;-75
2023/01/09 01:29:14;;;;;;;2.20;2.00;;;;;;;5.27;100.00;99393.06;6133233;23;20445;-76
2023/01/09 01:31:41;;;;;;;4.82;1.38;;;;;;;5.25;100.00;99403.31;6132904;23;20025;-76
2023/01/09 01:34:07;;;;;;;1.25;1.15;;;;;;;5.23;100.00;99400.38;6132662;23;20014;-76
2023/01/09 01:36:34;;;;;;;4.43;1.60;;;;;;;5.21;100.00;99401.97;6159485;23;20014;-76
2023/01/09 01:39:01;;;;;;;2.60;1.27;;;;;;;5.17;100.00;99410.03;6131818;23;20010;-76
2023/01/09 01:41:30;;;;;;;4.28;1.30;;;;;;;5.15;100.00;99406.38;6133421;23;20097;-76
2023/01/09 01:43:59;;;;;;;2.00;1.60;;;;;;;5.13;100.00;99420.00;6132750;23;20018;-76
2023/01/09 01:46:26;;;;;;;5.78;1.60;;;;;;;5.09;100.00;99416.00;6108300;23;20025;-75
2023/01/09 01:48:58;;;;;;;3.25;1.60;;;;;;;5.07;100.00;99420.97;6157023;23;20022;-76
2023/01/09 01:51:26;;;;;;;1.65;1.38;;;;;;;5.01;100.00;99415.53;6159450;23;20081;-76
2023/01/09 01:53:56;;;;;;;3.08;1.75;;;;;;;4.98;100.00;99429.56;6158684;23;20348;-75
2023/01/09 01:56:29;;;;;;;2.75;1.70;;;;;;;4.94;100.00;99427.06;6159591;23;20022;-75
2023/01/09 01:59:17;;;;;;;2.30;2.10;;;;;;;4.91;100.00;99419.28;6159243;23;20475;-76
2023/01/09 02:01:48;;;;;;;1.70;1.60;;;;;;;4.87;100.00;99422.03;6159633;23;20024;-76
2023/01/09 02:04:15;;;;;;;3.45;2.10;;;;;;;4.86;100.00;99420.56;6159291;23;20108;-76
2023/01/09 02:06:45;;;;;;;2.67;2.47;;;;;;;4.83;100.00;99421.44;6158677;23;20018;-76
2023/01/09 02:09:14;;;;;;;2.67;1.98;;;;;;;4.81;100.00;99431.69;6129067;23;20045;-75
2023/01/09 02:11:45;;;;;;;3.28;2.42;;;;;;;4.79;100.00;99426.13;6157654;23;20030;-75
2023/01/09 02:14:12;;;;;;;3.13;2.70;;;;;;;4.76;100.00;99429.63;6158772;23;20041;-75
2023/01/09 02:17:00;;;;;;;4.63;2.42;;;;;;;4.74;100.00;99425.94;6157962;23;20025;-75
2023/01/09 02:19:45;;;;;;;3.13;2.83;;;;;;;4.73;100.00;99433.13;6131126;23;20022;-76
2023/01/09 02:22:42;;;;;;;3.22;2.80;;;;;;;4.75;100.00;99438.69;6131725;23;20018;-76
2023/01/09 02:25:24;;;;;;;3.95;2.90;;;;;;;4.79;100.00;99433.31;6158712;23;20050;-76
2023/01/09 02:27:59;;;;;;;3.90;3.30;;;;;;;4.81;100.00;99444.84;6132719;23;20021;-76
2023/01/09 02:30:37;;;;;;;3.50;3.20;;;;;;;4.81;100.00;99441.50;6159417;23;20045;-76
2023/01/09 02:33:23;;;;;;;3.65;3.10;;;;;;;4.77;100.00;99441.63;6158660;23;20018;-76
2023/01/09 02:36:00;;;;;;;4.90;2.65;;;;;;;4.76;100.00;99437.53;6158566;23;20033;-76
2023/01/09 02:39:03;;;;;;;3.45;3.20;;;;;;;4.74;100.00;99436.50;6133419;23;20021;-76
2023/01/09 02:41:52;;;;;;;8.68;3.30;;;;;;;4.72;100.00;99436.19;6159203;23;20022;-76
2023/01/09 02:44:28;;;;;;;3.47;3.17;;;;;;;4.69;100.00;99432.50;6158982;23;20357;-76
2023/01/09 02:47:07;;;;;;;4.53;3.17;;;;;;;4.67;100.00;99442.75;6158993;23;20014;-75
2023/01/09 02:49:37;;;;;;;4.78;3.05;;;;;;;4.66;100.00;99433.34;6159182;23;20024;-76
2023/01/09 02:52:44;;;;;;;4.70;3.03;;;;;;;4.64;100.00;99433.06;6157848;23;20089;-75
2023/01/09 02:55:25;;;;;;;3.45;2.95;;;;;;;4.61;100.00;99428.63;6132195;23;20022;-76
2023/01/09 02:58:27;;;;;;;3.20;2.90;;;;;;;4.60;100.00;99427.16;6158846;23;20448;-75
2023/01/09 03:01:12;;;;;;;5.15;3.00;;;;;;;4.58;100.00;99434.75;6067907;23;20046;-76
2023/01/09 03:03:47;;;;;;;3.53;3.22;;;;;;;4.55;100.00;99433.72;6068266;23;20549;-75
2023/01/09 03:06:20;;;;;;;6.45;2.83;;;;;;;4.54;100.00;99429.63;6067457;23;20085;-75
2023/01/09 03:08:53;;;;;;;5.10;2.88;;;;;;;4.52;100.00;99424.03;6068066;23;20497;-76
2023/01/09 03:11:20;;;;;;;6.65;3.20;;;;;;;4.52;100.00;99428.56;6068179;23;20023;-75
2023/01/09 03:13:54;;;;;;;3.15;2.88;;;;;;;4.52;100.00;99423.31;6068549;23;20653;-75
2023/01/09 03:16:26;;;;;;;6.82;2.90;;;;;;;4.49;100.00;99422.25;6067558;23;20023;-76
2023/01/09 03:18:54;;;;;;;3.38;2.72;;;;;;;4.49;100.00;99426.78;6042644;23;20047;-76
2023/01/09 03:21:22;;;;;;;4.53;3.03;;;;;;;4.48;100.00;99425.31;6067750;23;20561;-75
2023/01/09 03:23:54;;;;;;;3.50;3.17;;;;;;;4.46;100.00;99423.09;6068186;23;20468;-76
2023/01/09 03:26:22;;;;;;;3.67;3.00;;;;;;;4.44;100.00;99417.53;6068100;23;20023;-76
2023/01/09 03:28:49;;;;;;;5.80;3.13;;;;;;;4.42;100.00;99409.31;6067786;23;20184;-75
2023/01/09 03:31:16;;;;;;;3.30;3.00;;;;;;;4.42;100.00;99411.22;6068077;23;20083;-75
2023/01/09 03:33:43;;;;;;;4.47;3.15;;;;;;;4.41;100.00;99412.38;6067487;23;20033;-75
2023/01/09 03:36:11;;;;;;;5.85;2.95;;;;;;;4.40;100.00;99416.22;6158200;23;20456;-76
2023/01/09 03:38:38;;;;;;;4.07;2.60;;;;;;;4.39;100.00;99417.38;6159017;23;20022;-76
2023/01/09 03:41:07;;;;;;;6.60;2.90;;;;;;;4.37;100.00;99419.69;6158190;23;20456;-75
2023/01/09 03:43:34;;;;;;;8.90;2.67;;;;;;;4.35;100.00;99418.22;6156812;23;20046;-75
2023/01/09 03:46:01;;;;;;;8.30;3.45;;;;;;;4.32;100.00;99413.06;6131561;23;20042;-76
2023/01/09 03:48:28;;;;;;;3.20;2.90;;;;;;;4.30;100.00;99420.66;6157991;23;20440;-76
2023/01/09 03:50:55;;;;;;;5.07;2.75;;;;;;;4.28;100.00;99426.38;6158370;23;20037;-76
2023/01/09 03:53:23;;;;;;;4.57;2.58;;;;;;;4.25;100.00;99429.84;6158155;23;20404;-76
2023/01/09 03:55:52;;;;;;;2.58;2.38;;;;;;;4.23;100.00;99434.81;6158167;23;20048;-76
2023/01/09 03:58:20;;;;;;;4.55;2.45;;;;;;;4.20;100.00;99427.75;6158025;23;20056;-76
2023/01/09 04:00:48;;;;;;;4.03;2.90;;;;;;;4.18;100.00;99432.72;6158532;23;20024;-76
2023/01/09 04:03:16;;;;;;;5.80;2.83;;;;;;;4.16;100.00;99432.41;6158049;23;20030;-75
2023/01/09 04:05:44;;;;;;;4.60;2.80;;;;;;;4.16;100.00;99426.41;6158866;23;20022;-75
2023/01/09 04:08:11;;;;;;;4.00;2.45;;;;;;;4.15;100.00;99433.56;6158116;23;20453;-76
2023/01/09 04:10:37;;;;;;;4.53;2.08;;;;;;;4.13;100.00;99432.53;6158544;23;20013;-76
2023/01/09 04:13:04;;;;;;;4.85;2.10;;;;;;;4.09;100.00;99429.25;6158031;23;20456;-76
2023/01/09 04:15:30;;;;;;;2.50;2.08;;;;;;;4.08;100.00;99428.53;6158519;23;20478;-75
2023/01/09 04:17:57;;;;;;;3.30;2.00;;;;;;;4.04;100.00;99435.81;6157461;23;20048;-76
2023/01/09 04:20:24;;;;;;;3.22;2.45;;;;;;;4.02;100.00;99436.22;6107802;23;20494;-75
2023/01/09 04:22:51;;;;;;;5.25;1.92;;;;;;;4.01;100.00;99439.28;6158027;23;20042;-76
2023/01/09 04:25:17;;;;;;;3.60;2.00;;;;;;;3.98;100.00;99435.63;6158013;23;20025;-76
2023/01/09 04:27:44;;;;;;;2.40;2.00;;;;;;;3.97;100.00;99434.16;6158421;23;20120;-75
2023/01/09 04:30:10;;;;;;;2.60;2.00;;;;;;;3.96;100.00;99434.59;6157903;23;20014;-75
2023/01/09 04:32:37;;;;;;;6.03;2.58;;;;;;;3.94;100.00;99435.00;6159141;23;20025;-76
2023/01/09 04:35:04;;;;;;;2.00;1.80;;;;;;;3.94;100.00;99442.91;6159071;23;20014;-76
2023/01/09 04:37:31;;;;;;;2.58;2.08;;;;;;;3.93;100.00;99443.34;6160135;23;20014;-76
2023/01/09 04:39:57;;;;;;;2.90;2.03;;;;;;;3.91;100.00;99441.13;6159412;23;20045;-76
2023/01/09 04:42:24;;;;;;;5.03;2.05;;;;;;;3.90;100.00;99442.28;6159822;23;20025;-76
2023/01/09 04:44:52;;;;;;;4.03;2.40;;;;;;;3.91;100.00;99443.75;6159291;23;20028;-75
2023/01/09 04:47:20;;;;;;;4.63;1.83;;;;;;;3.95;100.00;99443.66;6159251;23;20038;-75
2023/01/09 04:49:46;;;;;;;3.42;1.95;;;;;;;3.98;100.00;99435.63;6159935;23;20425;-76
2023/01/09 04:52:13;;;;;;;4.68;1.67;;;;;;;4.01;100.00;99437.38;6132609;23;20049;-76
2023/01/09 04:54:39;;;;;;;4.20;2.15;;;;;;;4.03;100.00;99436.97;6158074;23;20014;-76
2023/01/09 04:57:06;;;;;;;3.03;1.83;;;;;;;4.07;100.00;99432.31;6132680;23;20018;-76
2023/01/09 04:59:32;;;;;;;3.85;1.60;;;;;;;4.11;100.00;99440.84;6159561;23;20053;-75
2023/01/09 05:01:59;;;;;;;5.32;1.65;;;;;;;4.15;100.00;99438.84;6158658;23;20356;-75
2023/01/09 05:04:26;;;;;;;2.17;1.60;;;;;;;4.18;100.00;99434.63;6159572;23;20018;-75
2023/01/09 05:06:52;;;;;;;2.63;1.80;;;;;;;4.21;100.00;99433.75;6159202;23;20509;-75
2023/01/09 05:09:19;;;;;;;6.35;1.80;;;;;;;4.23;100.00;99431.44;6159302;23;20025;-75
2023/01/09 05:11:45;;;;;;;1.80;1.45;;;;;;;4.25;100.00;99432.47;6159581;23;20029;-76
2023/01/09 05:14:12;;;;;;;6.00;1.92;;;;;;;4.27;100.00;99424.91;6158821;23;20018;-75
2023/01/09 05:16:38;;;;;;;3.72;1.45;;;;;;;4.28;100.00;99429.00;6157325;23;20048;-76
2023/01/09 05:19:05;;;;;;;1.67;1.05;;;;;;;4.30;100.00;99424.03;6158820;23;20018;-75
2023/01/09 05:21:32;;;;;;;5.30;1.52;;;;;;;4.32;100.00;99434.88;6159671;23;20026;-76
2023/01/09 05:23:58;;;;;;;5.13;1.77;;;;;;;4.33;100.00;99430.34;6159114;23;20491;-75
2023/01/09 05:26:25;;;;;;;7.00;1.45;;;;;;;4.34;100.00;99422.03;6159977;23;20078;-75
2023/01/09 05:28:53;;;;;;;6.35;1.65;;;;;;;4.37;100.00;99419.69;6159249;23;20440;-75
2023/01/09 05:31:19;;;;;;;2.63;1.20;;;;;;;4.40;100.00;99421.47;6158809;23;20025;-75
2023/01/09 05:33:46;;;;;;;2.53;1.40;;;;;;;4.42;100.00;99424.41;6159556;23;20084;-75
2023/01/09 05:36:13;;;;;;;4.65;1.60;;;;;;;4.42;100.00;99416.50;6158639;23;20018;-75
2023/01/09 05:38:39;;;;;;;6.07;1.42;;;;;;;4.43;100.00;99412.69;6159737;23;20207;-76
2023/01/09 05:41:06;;;;;;;4.95;1.60;;;;;;;4.43;100.00;99413.44;6132855;23;20048;-75
2023/01/09 05:43:33;;;;;;;3.22;1.23;;;;;;;4.44;100.00;99409.63;6159220;23;20022;-75
2023/01/09 05:46:00;;;;;;;1.55;1.33;;;;;;;4.43;100.00;99408.16;6158251;23;20436;-75
2023/01/09 05:48:26;;;;;;;1.73;1.13;;;;;;;4.43;100.00;99410.78;6159490;23;20446;-75
2023/01/09 05:50:53;;;;;;;3.33;1.25;;;;;;;4.44;100.00;99401.72;6159228;23;20018;-75
2023/01/09 05:53:19;;;;;;;5.53;1.60;;;;;;;4.46;100.00;99417.09;6159189;23;20119;-75
2023/01/09 05:55:46;;;;;;;5.85;1.38;;;;;;;4.47;100.00;99406.13;6159695;23;20022;-75
2023/01/09 05:58:12;;;;;;;2.35;1.23;;;;;;;4.49;100.00;99405.72;6158634;23;20046;-76
2023/01/09 06:00:39;;;;;;;3.95;1.17;;;;;;;4.51;100.00;99403.38;6159322;23;20044;-76
2023/01/09 06:03:05;;;;;;;1.58;1.48;;;;;;;4.53;100.00;99409.69;6157092;23;20073;-75
2023/01/09 06:05:32;;;;;;;1.92;1.48;;;;;;;4.55;100.00;99401.34;6159340;23;20014;-75
2023/01/09 06:07:59;;;;;;;2.65;1.85;;;;;;;4.56;100.00;99400.94;6159329;23;20437;-76
2023/01/09 06:10:25;;;;;;;2.60;1.73;;;;;;;4.59;100.00;99399.34;6160198;23;20025;-76
2023/01/09 06:12:53;;;;;;;2.35;1.25;;;;;;;4.60;100.00;99401.53;6157577;23;20014;-76
2023/01/09 06:15:20;;;;;;;5.45;1.45;;;;;;;4.62;100.00;99396.56;6157788;23;20411;-76
2023/01/09 06:17:46;;;;;;;6.03;1.60;;;;;;;4.64;100.00;99401.41;6157164;23;20018;-76
2023/01/09 06:20:13;;;;;;;8.00;1.58;;;;;;;4.65;100.00;99401.00;6157208;23;20097;-77
2023/01/09 06:22:39;;;;;;;2.88;1.40;;;;;;;4.67;100.00;99396.03;6158550;23;20018;-76
2023/01/09 06:25:06;;;;;;;3.67;1.63;;;;;;;4.68;100.00;99386.94;6159528;23;20018;-78
2023/01/09 06:27:32;;;;;;;5.70;1.52;;;;;;;4.72;100.00;99392.09;6133160;23;20218;-76
2023/01/09 06:29:59;;;;;;;2.85;1.63;;;;;;;4.76;100.00;99397.25;6133415;23;20018;-77
2023/01/09 06:32:27;;;;;;;4.60;1.77;;;;;;;4.77;100.00;99396.81;6159805;23;20027;-77
2023/01/09 06:34:53;;;;;;;6.50;1.80;;;;;;;4.81;100.00;99397.41;6159557;23;20024;-76
2023/01/09 06:37:20;;;;;;;5.07;1.52;;;;;;;4.84;100.00;99395.81;6159973;23;20034;-76
2023/01/09 06:39:46;;;;;;;4.68;1.92;;;;;;;4.86;100.00;99399.47;6133962;23;20475;-76
2023/01/09 06:42:13;;;;;;;6.93;1.73;;;;;;;4.88;100.00;99391.88;6159043;23;20014;-76
2023/01/09 06:44:39;;;;;;;5.40;1.83;;;;;;;4.89;100.00;99398.63;6160106;23;20029;-76
2023/01/09 06:47:05;;;;;;;2.88;1.58;;;;;;;4.91;100.00;99391.00;6159825;23;20030;-75
2023/01/09 06:49:32;;;;;;;5.38;1.83;;;;;;;4.94;100.00;99389.41;6159953;23;20073;-75
2023/01/09 06:52:04;;;;;;;7.45;1.58;;;;;;;4.97;100.00;99389.28;6159662;23;20018;-75
2023/01/09 06:54:33;;;;;;;2.35;1.55;;;;;;;5.00;100.00;99390.31;6160046;23;20167;-76
2023/01/09 06:57:04;;;;;;;5.18;1.75;;;;;;;5.03;100.00;99397.38;6158530;23;20041;-75
2023/01/09 06:59:30;;;;;;;3.58;1.50;;;;;;;5.05;100.00;99392.41;6159847;23;20356;-76
2023/01/09 07:02:13;;;;;;;5.45;1.48;;;;;;;5.07;100.00;99391.97;6159653;23;20046;-76
2023/01/09 07:04:40;;;;;;;4.38;1.42;;;;;;;5.09;100.00;99393.00;6133565;23;20408;-76
2023/01/09 07:07:06;;;;;;;4.53;1.38;;;;;;;5.11;100.00;99390.66;6159380;23;20010;-76
2023/01/09 07:09:33;;;;;;;3.88;1.60;;;;;;;5.13;100.00;99390.97;6159843;23;20427;-76
2023/01/09 07:11:59;;;;;;;4.35;1.83;;;;;;;5.14;100.00;99389.78;6158535;23;20014;-76
2023/01/09 07:14:26;;;;;;;2.30;1.30;;;;;;;5.15;100.00;99393.91;6159958;23;20014;-76
2023/01/09 07:16:52;;;;;;;7.95;1.88;;;;;;;5.17;100.00;99386.28;6157668;23;20021;-75
2023/01/09 07:19:19;;;;;;;3.33;1.80;;;;;;;5.18;100.00;99389.66;6159811;23;20018;-77
2023/01/09 07:21:45;;;;;;;5.35;2.03;;;;;;;5.20;100.00;99392.59;6159900;23;20018;-75
2023/01/09 07:24:11;;;;;;;8.75;2.50;;;;;;;5.22;100.00;99392.88;6159415;23;20022;-75
2023/01/09 07:26:38;;;;;;;5.75;2.00;;;;;;;5.22;100.00;99390.97;6159209;23;20069;-75
2023/01/09 07:29:04;;;;;;;4.97;1.60;;;;;;;5.22;100.00;99385.69;6133047;23;20045;-77
2023/01/09 07:31:31;;;;;;;3.28;1.83;;;;;;;5.23;100.00;99386.44;6159813;23;20013;-76
2023/01/09 07:33:57;;;;;;;6.40;1.75;;;;;;;5.24;100.00;99395.81;6132936;23;20049;-76
2023/01/09 07:36:24;;;;;;;9.60;2.33;;;;;;;5.23;100.00;99389.06;6158101;23;20069;-75
2023/01/09 07:38:50;;;;;;;3.45;2.10;;;;;;;5.25;100.00;99387.47;6159364;23;20022;-77
2023/01/09 07:41:17;;;;;;;4.45;1.67;;;;;;;5.27;100.00;99400.22;6158825;23;20011;-78
2023/01/09 07:43:43;;;;;;;2.20;1.75;;;;;;;5.27;100.00;99395.69;6133386;23;20052;-76
2023/01/09 07:46:10;;;;;;;2.28;2.15;;;;;;;5.28;100.00;99405.06;6159264;23;20427;-76
2023/01/09 07:48:37;;;;;;;3.75;2.20;;;;;;;5.30;100.00;99417.84;6159622;23;20022;-77
2023/01/09 07:51:11;;;;;;;6.45;2.05;;;;;;;5.31;100.00;99406.84;6159077;23;20025;-77
2023/01/09 07:53:38;;;;;;;6.13;2.25;;;;;;;5.32;100.00;99410.97;6159650;23;20018;-76
2023/01/09 07:56:05;;;;;;;10.82;2.88;;;;;;;5.34;100.00;99405.25;6158721;23;20465;-76
2023/01/09 07:58:31;;;;;;;2.67;2.45;;;;;;;5.35;100.00;99401.44;6159391;23;20018;-76
2023/01/09 08:00:58;;;;;;;5.85;2.88;;;;;;;5.37;100.00;99399.09;6158659;23;20073;-76
2023/01/09 08:03:25;;;;;;;5.80;2.97;;;;;;;5.39;100.00;99407.31;6159237;23;20065;-76
2023/01/09 08:05:52;;;;;;;3.88;2.60;;;;;;;5.41;100.00;99412.16;6159327;23;20049;-76
2023/01/09 08:08:18;;;;;;;3.20;2.78;;;;;;;5.41;100.00;99414.78;6160447;23;20025;-76
2023/01/09 08:10:45;;;;;;;2.88;2.33;;;;;;;5.41;100.00;99418.16;6160066;23;20018;-76
2023/01/09 08:13:11;;;;;;;3.70;2.50;;;;;;;5.43;100.00;99423.03;6160001;23;20441;-77
2023/01/09 08:15:38;;;;;;;3.78;2.10;;;;;;;5.43;100.00;99421.13;6160268;23;20010;-76
2023/01/09 08:18:05;;;;;;;3.05;1.42;;;;;;;5.42;100.00;99419.66;6160170;23;20448;-76
2023/01/09 08:20:31;;;;;;;2.33;1.65;;;;;;;5.42;100.00;99427.56;6160111;23;20093;-77
2023/01/09 08:22:58;;;;;;;3.78;1.92;;;;;;;5.41;100.00;99422.72;6133622;23;20018;-76
2023/01/09 08:25:25;;;;;;;1.70;1.20;;;;;;;5.41;100.00;99418.16;6159608;23;20156;-76
2023/01/09 08:27:51;;;;;;;4.03;1.10;;;;;;;5.41;100.00;99438.56;6159912;23;20025;-76
2023/01/09 08:30:18;;;;;;;3.78;1.05;;;;;;;5.42;100.00;99453.22;6160459;23;20013;-77
2023/01/09 08:32:51;;;;;;;1.85;1.15;;;;;;;5.41;100.00;99455.13;6134137;23;20081;-76
2023/01/09 08:35:19;;;;;;;4.72;1.02;;;;;;;5.41;100.00;99455.13;6160367;23;20014;-76
2023/01/09 08:37:47;;;;;;;1.08;0.70;;;;;;;5.42;100.00;99464.50;6159581;23;20101;-76
2023/01/09 08:40:15;;;;;;;1.50;0.90;;;;;;;5.42;100.00;99469.78;6160198;23;20018;-75
2023/01/09 08:48:13;;;;;;;3.60;1.65;;;;;;;5.49;100.00;99468.78;6159917;23;20018;-76
2023/01/09 08:50:40;;;;;;;1.08;0.93;;;;;;;5.53;100.00;99461.47;6160065;23;20444;-76
2023/01/09 08:53:06;;;;;;;2.88;1.27;;;;;;;5.55;100.00;99478.34;6159272;23;20073;-76
2023/01/09 08:55:33;;;;;;;5.85;1.70;;;;;;;5.58;100.00;99479.38;6160299;23;20018;-77
2023/01/09 08:57:59;;;;;;;2.05;1.48;;;;;;;5.61;100.00;99487.16;6159741;23;20022;-77
2023/01/09 09:00:26;;;;;;;3.88;1.35;;;;;;;5.63;100.00;99490.09;6160183;23;20014;-77
2023/01/09 09:02:58;;;;;;;6.78;1.55;;;;;;;5.67;100.00;99497.88;6159653;23;20025;-76
2023/01/09 09:05:27;;;;;;;3.50;1.15;;;;;;;5.68;100.00;99507.28;6160015;23;20093;-76
2023/01/09 09:07:55;;;;;;;6.47;1.40;;;;;;;5.71;100.00;99511.69;6159030;23;20022;-76
2023/01/09 09:10:23;;;;;;;4.40;1.63;;;;;;;5.73;100.00;99514.63;6160067;23;20444;-76
2023/01/09 09:12:52;;;;;;;3.38;1.60;;;;;;;5.75;100.00;99522.13;6159582;23;20353;-76
2023/01/09 09:15:25;;;;;;;1.58;1.48;;;;;;;5.76;100.00;99526.97;6158459;23;20014;-76
2023/01/09 09:17:54;;;;;;;5.50;1.55;;;;;;;5.80;100.00;99530.22;6158245;23;20470;-76
2023/01/09 09:20:22;;;;;;;5.45;1.23;;;;;;;5.84;100.00;99540.63;6159622;23;20022;-76
2023/01/09 09:22:49;;;;;;;4.10;1.67;;;;;;;5.86;100.00;99554.88;6158769;23;20104;-76
2023/01/09 09:25:17;;;;;;;3.17;1.35;;;;;;;5.87;100.00;99558.25;6133274;23;20026;-76
2023/01/09 09:27:44;;;;;;;2.28;1.45;;;;;;;5.89;100.00;99558.59;6160029;23;20049;-76
2023/01/09 09:30:13;;;;;;;1.52;1.30;;;;;;;5.91;100.00;99556.25;6159197;23;20021;-77
2023/01/09 09:32:39;;;;;;;1.88;1.25;;;;;;;5.94;100.00;99563.31;6133041;23;20443;-76
2023/01/09 09:35:07;;;;;;;4.63;1.10;;;;;;;5.98;100.00;99577.84;6133023;23;20014;-76
2023/01/09 09:37:33;;;;;;;3.95;1.25;;;;;;;6.01;100.00;99574.31;6159134;23;20057;-76
2023/01/09 09:40:00;;;;;;;3.40;1.30;;;;;;;6.02;100.00;99580.34;6159370;23;20018;-76
2023/01/09 09:46:19;;;;;;;1.83;0.90;;;;;;;6.07;100.00;99610.72;6159719;23;20021;-76
2023/01/09 09:48:52;;;;;;;2.58;0.95;;;;;;;6.10;100.00;99618.53;6159748;23;20026;-76
2023/01/09 09:51:49;;;;;;;1.38;0.77;;;;;;;6.12;100.00;99637.31;6159091;23;20010;-76
2023/01/09 09:54:22;;;;;;;4.35;0.90;;;;;;;6.13;100.00;99638.81;6159910;23;20021;-76
2023/01/09 09:56:52;;;;;;;7.47;1.10;;;;;;;6.11;100.00;99643.78;6159507;23;20049;-76
2023/01/09 09:59:28;;;;;;;3.05;0.80;;;;;;;6.11;100.00;99657.00;6159546;23;20029;-76
2023/01/09 10:01:59;;;;;;;2.53;0.90;;;;;;;6.09;100.00;99664.63;6132996;23;20045;-77
2023/01/09 10:04:29;;;;;;;;;;;;;;;6.08;100.00;99657.84;6134209;23;20511;-76
2023/01/09 10:07:08;;;;;;;5.10;1.05;;;;;;;6.07;100.00;99669.59;6158628;23;19936;-77
2023/01/09 10:09:53;;;;;;;7.72;0.82;;;;;;;6.08;100.00;99667.69;6159801;23;20584;-77
2023/01/09 10:12:31;;;;;;;11.32;1.27;;;;;;;6.09;100.00;99685.75;6159897;23;20468;-76
2023/01/09 10:15:45;;;;;;;3.38;0.80;;;;;;;6.12;100.00;99687.53;6132576;23;20018;-76
2023/01/09 10:18:34;;;;;;;4.82;0.88;;;;;;;6.17;100.00;99686.97;6068295;23;20054;-76
2023/01/09 10:21:49;;;;;;;4.65;1.38;;;;;;;6.23;100.00;99693.16;6067857;23;20031;-76
2023/01/09 10:24:48;;;;;;;6.78;1.10;;;;;;;6.31;100.00;99694.38;6065737;23;20051;-76
2023/01/09 10:27:31;;;;;;;4.82;1.25;;;;;;;6.42;100.00;99706.44;6068845;23;20394;-76
2023/01/09 10:30:36;;;;;;;9.07;1.92;;;;;;;6.52;100.00;99711.34;6068394;23;20024;-76
2023/01/09 10:33:19;;;;;;;5.55;1.60;;;;;;;6.61;100.00;99721.22;6068284;23;20024;-76
2023/01/09 10:36:04;;;;;;;9.23;1.95;;;;;;;6.75;100.00;99715.38;6068087;23;20031;-76
2023/01/09 10:38:35;;;;;;;10.25;1.70;;;;;;;6.80;100.00;99714.78;6068963;23;20458;-76
2023/01/09 10:41:08;;;;;;;4.45;1.15;;;;;;;6.82;100.00;99730.94;6068561;23;20023;-76
2023/01/09 10:43:45;;;;;;;3.08;1.25;;;;;;;6.82;100.00;99733.59;6068798;23;20019;-76
2023/01/09 10:46:40;;;;;;;7.97;0.85;;;;;;;6.83;100.00;99737.72;6068487;23;20062;-75
2023/01/09 10:49:14;;;;;;;3.00;0.80;;;;;;;6.83;100.00;99752.84;6121870;23;20094;-77
2023/01/09 10:51:49;;;;;;;2.92;0.90;;;;;;;6.80;100.00;99756.41;6160287;23;20457;-76
2023/01/09 10:54:20;;;;;;;5.90;0.95;;;;;;;6.76;100.00;99755.78;6159975;23;20025;-76
2023/01/09 10:56:55;;;;;;;3.17;0.75;;;;;;;6.74;100.00;99760.78;6159186;23;20487;-76
2023/01/09 10:59:23;;;;;;;6.03;0.90;;;;;;;6.73;100.00;99765.34;6133338;23;20018;-77
2023/01/09 11:01:50;;;;;;;1.30;0.77;;;;;;;6.71;100.00;99770.31;6158930;23;20098;-78
2023/01/09 11:04:22;;;;;;;3.10;1.10;;;;;;;6.71;100.00;99775.59;6132235;23;20428;-77
2023/01/09 11:06:58;;;;;;;2.67;0.80;;;;;;;6.71;100.00;99772.97;6132818;23;20018;-77
2023/01/09 11:09:25;;;;;;;2.25;0.77;;;;;;;6.75;100.00;99781.50;6159317;23;20030;-78
2023/01/09 11:11:51;;;;;;;3.25;1.35;;;;;;;6.84;100.00;99778.88;6158884;23;20020;-77
2023/01/09 11:14:32;;;;;;;4.72;1.30;;;;;;;7.00;100.00;99780.53;6133171;23;20025;-76
2023/01/09 11:17:02;;;;;;;7.07;1.50;;;;;;;7.07;100.00;99790.13;6158537;23;20022;-76
2023/01/09 11:19:32;;;;;;;2.17;0.98;;;;;;;7.08;100.00;99787.03;6158549;23;20014;-78
2023/01/09 11:22:16;;;;;;;4.65;1.38;;;;;;;7.10;100.00;99792.63;6158605;23;20495;-78
2023/01/09 11:24:43;;;;;;;3.85;1.27;;;;;;;7.16;100.00;99793.53;6132688;23;20445;-78
2023/01/09 11:27:12;;;;;;;2.30;0.88;;;;;;;7.22;100.00;99796.31;6132219;23;20017;-77
2023/01/09 11:29:40;;;;;;;4.43;1.15;;;;;;;7.29;100.00;99801.31;6159119;23;20025;-77
2023/01/09 11:32:21;;;;;;;3.33;1.00;;;;;;;7.37;100.00;99799.88;6132297;23;20448;-77
2023/01/09 11:34:49;;;;;;;8.10;1.50;;;;;;;7.44;100.00;99807.53;6133131;23;20041;-77
2023/01/09 11:37:25;;;;;;;9.65;1.75;;;;;;;7.48;100.00;99802.84;6159678;23;20404;-78
2023/01/09 11:39:53;;;;;;;8.38;1.55;;;;;;;7.53;100.00;99802.25;6158099;23;20097;-77
2023/01/09 11:45:16;;;;;;;5.30;1.40;;;;;;;7.51;100.00;99812.56;6158745;23;20022;-77
2023/01/09 11:47:43;;;;;;;4.72;1.25;;;;;;;7.49;100.00;99822.84;6158625;23;20032;-77
2023/01/09 11:50:22;;;;;;;5.95;1.48;;;;;;;7.53;100.00;99830.66;6158667;23;20512;-76
2023/01/09 11:53:12;;;;;;;8.82;1.50;;;;;;;7.54;100.00;99834.78;6158617;23;20046;-77
2023/01/09 11:55:40;;;;;;;3.65;1.45;;;;;;;7.56;100.00;99841.09;6132427;23;20097;-76
2023/01/09 11:58:15;;;;;;;4.57;1.38;;;;;;;7.57;100.00;99837.28;6158513;23;20025;-77
2023/01/09 12:00:48;;;;;;;8.70;1.60;;;;;;;7.59;100.00;99842.13;6158850;23;20018;-76
2023/01/09 12:03:42;;;;;;;7.53;1.50;;;;;;;7.55;100.00;99846.84;6159109;23;20015;-76
2023/01/09 12:06:27;;;;;;;7.40;1.55;;;;;;;7.51;100.00;99841.69;6158422;23;20444;-76
2023/01/09 12:09:01;;;;;;;7.40;1.55;;;;;;;7.49;100.00;99848.59;6158412;23;20021;-76